Kezdőlap
METAR-TAF:

METAR-TAF

Repülőterek :

Sanya, Kína

földrajzi szélesség: 18-18N, földrajzi hosszúság: 109-24E, magasság: 27 m

Jelenlegi meteorológiai megfigyelések

A jelentés 41 perccel ezelõtt készült, 11:00 UTC
Délnyugati szél 4 kt, déli és nyugati között változik
Hőmérséklet 31°C
Páratartalom 71%
Légköri nyomás 1003 hPa
Látótávolság 10 km, vagy több
felhőtlen 1500 m magasságban, és nincs gomolyfelhõ

METAR: ZJSY 191100Z 22002MPS 190V260 CAVOK 31/25 Q1003 NOSIG

Idő: 19:41 (11:41 UTC)

Előrejelzés

A jelentés 2 órával és 39 perccel ezelõtt készült, 09:02 UTC
Az előrejelzés 19-én 12 óra UTC és 20-én 12 óra UTC között érvényes
Észak-északnyugati szél 6 kt
Látótávolság 10 km, vagy több
Kevés felhő 2000 lábon

TAF: ZJSY 190902Z 1912/2012 34003MPS 9999 FEW020 TX33/2006Z TN28/1921Z

Meteorológiai megfigyelések és előrejelzések több, mint 4000 repülőtéren (METAR és TAF jelentéseket).

A térképen piros és sárga pontok jelzik az elérhető meteorológiai állomásokat.

Mozgassa az egeret a pont fölött, hogy megjelenjen az állomás neve.

Azután kattintson az időjárási megfigyelések és előrejelzések megtekintéséhez.

A térkép megváltoztatása: kattintson a fekete keresztel jelölt zöld gombra ráközelítéshez, a vonallal jelölt zöld gombra távolításhoz, vagy a zöld nyilakra a szomszédos térképek eléréséhez.


METAR-TAF: